Olivia, Minnesota
Current Conditions -  °F | °C
As of 6:33 PM on Sunday 21 Dec 2014 (Local Time) from KOVL Reporting Station
Haze Haze  
Wind Chill: 29°   Ceiling: 100
Heat Index: 36°   Visibility: 1.5mi
Dew Point: 34°   Wind: 9mph
Humidity: 93%   Direction: 140°SE
Pressure: 29.64"   Gusts: NA
Location:  44.78°N, 94.99°W
Report Text: KOVL 220033Z AUTO 14008KT 1 1/2SM BR OVC001 02/01 A2964 RMK AO2
Loading
Personal Weather Stations






























Interactive Weather Map New forecast layout! Learn more

10-Day Weather Forecast

Advertisements
Track Severe Weather on mobile